sensor_id;sensor_type;location;lat;lon;timestamp;pressure;altitude;pressure_sealevel;temperature;humidity
12785;BME280;6456;42.680;23.260;2023-01-31T00:00:55;94151.16;;;0.62;93.74
12785;BME280;6456;42.680;23.260;2023-01-31T00:03:22;94219.41;;;1.01;93.47
12785;BME280;6456;42.680;23.260;2023-01-31T00:05:50;94179.78;;;0.77;92.68
12785;BME280;6456;42.680;23.260;2023-01-31T00:08:17;94218.94;;;0.90;92.41
12785;BME280;6456;42.680;23.260;2023-01-31T00:10:44;94184.50;;;0.57;92.29
12785;BME280;6456;42.680;23.260;2023-01-31T00:13:11;94159.25;;;0.51;92.21
12785;BME280;6456;42.680;23.260;2023-01-31T00:15:38;94209.72;;;0.63;92.35
12785;BME280;6456;42.680;23.260;2023-01-31T00:18:05;94152.31;;;0.35;92.42
12785;BME280;6456;42.680;23.260;2023-01-31T00:20:31;94174.78;;;0.43;92.74
12785;BME280;6456;42.680;23.260;2023-01-31T00:23:00;94185.63;;;0.54;93.47
12785;BME280;6456;42.680;23.260;2023-01-31T00:25:26;94225.44;;;0.78;93.65
12785;BME280;6456;42.680;23.260;2023-01-31T00:27:53;94192.28;;;0.65;93.80
12785;BME280;6456;42.680;23.260;2023-01-31T00:30:20;94218.13;;;0.81;93.37
12785;BME280;6456;42.680;23.260;2023-01-31T00:32:47;94202.28;;;0.68;93.85
12785;BME280;6456;42.680;23.260;2023-01-31T00:35:14;94219.44;;;0.69;94.15
12785;BME280;6456;42.680;23.260;2023-01-31T00:37:40;94212.00;;;0.66;95.01
12785;BME280;6456;42.680;23.260;2023-01-31T00:40:11;94194.19;;;0.63;94.87
12785;BME280;6456;42.680;23.260;2023-01-31T00:42:38;94183.84;;;0.63;94.41
12785;BME280;6456;42.680;23.260;2023-01-31T00:45:06;94138.91;;;0.32;94.25
12785;BME280;6456;42.680;23.260;2023-01-31T00:47:33;94214.09;;;0.87;93.87
12785;BME280;6456;42.680;23.260;2023-01-31T00:50:00;94212.47;;;0.86;93.81
12785;BME280;6456;42.680;23.260;2023-01-31T00:52:27;94208.41;;;0.91;93.67
12785;BME280;6456;42.680;23.260;2023-01-31T00:54:54;94216.81;;;0.93;93.39
12785;BME280;6456;42.680;23.260;2023-01-31T00:57:22;94206.13;;;0.96;93.06
12785;BME280;6456;42.680;23.260;2023-01-31T00:59:49;94212.97;;;0.97;93.00
12785;BME280;6456;42.680;23.260;2023-01-31T01:02:16;94217.00;;;1.00;93.14
12785;BME280;6456;42.680;23.260;2023-01-31T01:04:42;94151.50;;;0.51;93.00
12785;BME280;6456;42.680;23.260;2023-01-31T01:07:09;94234.31;;;0.99;92.00
12785;BME280;6456;42.680;23.260;2023-01-31T01:09:36;94231.72;;;0.99;91.84
12785;BME280;6456;42.680;23.260;2023-01-31T01:12:03;94236.09;;;0.99;91.62
12785;BME280;6456;42.680;23.260;2023-01-31T01:14:33;94236.22;;;1.05;91.37
12785;BME280;6456;42.680;23.260;2023-01-31T01:17:00;94201.47;;;0.92;87.88
12785;BME280;6456;42.680;23.260;2023-01-31T01:19:27;94165.72;;;0.71;86.46
12785;BME280;6456;42.680;23.260;2023-01-31T01:21:54;94225.03;;;1.21;87.59
12785;BME280;6456;42.680;23.260;2023-01-31T01:24:21;94170.38;;;0.92;85.90
12785;BME280;6456;42.680;23.260;2023-01-31T01:26:48;94221.47;;;1.30;80.12
12785;BME280;6456;42.680;23.260;2023-01-31T01:29:15;94215.47;;;1.38;80.13
12785;BME280;6456;42.680;23.260;2023-01-31T01:31:43;94200.06;;;1.36;76.79
12785;BME280;6456;42.680;23.260;2023-01-31T01:34:12;94215.03;;;1.65;70.00
12785;BME280;6456;42.680;23.260;2023-01-31T01:36:39;94179.41;;;1.51;69.61
12785;BME280;6456;42.680;23.260;2023-01-31T01:39:08;94171.50;;;1.52;69.41
12785;BME280;6456;42.680;23.260;2023-01-31T01:41:36;94170.00;;;1.58;66.56
12785;BME280;6456;42.680;23.260;2023-01-31T01:44:43;94216.44;;;2.06;66.69
12785;BME280;6456;42.680;23.260;2023-01-31T01:47:15;94174.78;;;1.77;66.78
12785;BME280;6456;42.680;23.260;2023-01-31T01:49:47;94220.81;;;2.06;68.03
12785;BME280;6456;42.680;23.260;2023-01-31T01:52:15;94200.63;;;1.93;68.47
12785;BME280;6456;42.680;23.260;2023-01-31T01:54:46;94246.19;;;2.26;68.18
12785;BME280;6456;42.680;23.260;2023-01-31T01:57:17;94226.03;;;2.28;68.07
12785;BME280;6456;42.680;23.260;2023-01-31T02:00:02;94197.97;;;2.01;68.24
12785;BME280;6456;42.680;23.260;2023-01-31T02:02:33;94220.69;;;2.30;67.61
12785;BME280;6456;42.680;23.260;2023-01-31T02:05:00;94233.03;;;2.28;67.30
12785;BME280;6456;42.680;23.260;2023-01-31T02:07:28;94199.56;;;2.10;67.46
12785;BME280;6456;42.680;23.260;2023-01-31T02:09:59;94235.84;;;2.18;67.10
12785;BME280;6456;42.680;23.260;2023-01-31T02:12:27;94239.84;;;2.29;66.58
12785;BME280;6456;42.680;23.260;2023-01-31T02:14:54;94205.72;;;2.09;67.02
12785;BME280;6456;42.680;23.260;2023-01-31T02:17:21;94236.78;;;2.25;67.33
12785;BME280;6456;42.680;23.260;2023-01-31T02:20:00;94158.28;;;1.70;67.14
12785;BME280;6456;42.680;23.260;2023-01-31T02:22:33;94216.00;;;2.03;68.06
12785;BME280;6456;42.680;23.260;2023-01-31T02:25:31;94238.84;;;2.07;67.63
12785;BME280;6456;42.680;23.260;2023-01-31T02:28:32;94225.84;;;2.07;67.28
12785;BME280;6456;42.680;23.260;2023-01-31T02:34:11;94183.84;;;1.73;66.41
12785;BME280;6456;42.680;23.260;2023-01-31T02:36:50;94231.72;;;2.01;67.17
12785;BME280;6456;42.680;23.260;2023-01-31T02:39:28;94245.81;;;2.07;67.71
12785;BME280;6456;42.680;23.260;2023-01-31T02:42:05;94200.03;;;1.83;69.87
12785;BME280;6456;42.680;23.260;2023-01-31T02:44:44;94225.63;;;1.86;71.33
12785;BME280;6456;42.680;23.260;2023-01-31T02:47:37;94166.09;;;1.62;72.01
12785;BME280;6456;42.680;23.260;2023-01-31T02:50:11;94247.28;;;2.01;71.83
12785;BME280;6456;42.680;23.260;2023-01-31T02:52:45;94185.88;;;1.63;73.11
12785;BME280;6456;42.680;23.260;2023-01-31T02:55:17;94237.00;;;1.85;72.10
12785;BME280;6456;42.680;23.260;2023-01-31T02:58:07;94260.25;;;2.01;72.54
12785;BME280;6456;42.680;23.260;2023-01-31T03:00:37;94231.22;;;1.67;72.01
12785;BME280;6456;42.680;23.260;2023-01-31T03:03:07;94213.44;;;1.56;72.67
12785;BME280;6456;42.680;23.260;2023-01-31T03:05:36;94232.69;;;1.69;72.98
12785;BME280;6456;42.680;23.260;2023-01-31T03:08:04;94271.72;;;1.76;74.15
12785;BME280;6456;42.680;23.260;2023-01-31T03:10:54;94250.53;;;1.64;74.62
12785;BME280;6456;42.680;23.260;2023-01-31T03:13:33;94225.16;;;1.44;75.10
12785;BME280;6456;42.680;23.260;2023-01-31T03:16:15;94238.56;;;1.55;76.03
12785;BME280;6456;42.680;23.260;2023-01-31T03:19:05;94255.28;;;1.53;76.82
12785;BME280;6456;42.680;23.260;2023-01-31T03:21:43;94241.00;;;1.57;77.64
12785;BME280;6456;42.680;23.260;2023-01-31T03:24:12;94256.34;;;1.66;78.16
12785;BME280;6456;42.680;23.260;2023-01-31T03:26:40;94257.50;;;1.56;79.44
12785;BME280;6456;42.680;23.260;2023-01-31T03:29:10;94306.06;;;1.78;80.42
12785;BME280;6456;42.680;23.260;2023-01-31T03:31:43;94318.56;;;1.82;81.44
12785;BME280;6456;42.680;23.260;2023-01-31T03:34:13;94319.72;;;1.72;81.94
12785;BME280;6456;42.680;23.260;2023-01-31T03:36:46;94287.34;;;1.60;83.20
12785;BME280;6456;42.680;23.260;2023-01-31T03:39:27;94319.69;;;1.80;83.84
12785;BME280;6456;42.680;23.260;2023-01-31T03:41:57;94324.53;;;1.83;84.13
12785;BME280;6456;42.680;23.260;2023-01-31T03:44:32;94206.63;;;1.00;84.88
12785;BME280;6456;42.680;23.260;2023-01-31T03:47:05;94345.47;;;1.81;86.36
12785;BME280;6456;42.680;23.260;2023-01-31T03:49:33;94285.09;;;1.41;86.39
12785;BME280;6456;42.680;23.260;2023-01-31T03:52:04;94309.34;;;1.64;87.71
12785;BME280;6456;42.680;23.260;2023-01-31T03:54:36;94333.63;;;1.79;88.30
12785;BME280;6456;42.680;23.260;2023-01-31T03:57:11;94318.13;;;1.63;88.32
12785;BME280;6456;42.680;23.260;2023-01-31T03:59:42;94345.47;;;1.73;89.16
12785;BME280;6456;42.680;23.260;2023-01-31T04:02:16;94341.28;;;1.72;89.67
12785;BME280;6456;42.680;23.260;2023-01-31T04:04:47;94318.75;;;1.65;90.18
12785;BME280;6456;42.680;23.260;2023-01-31T04:07:16;94341.44;;;1.71;90.53
12785;BME280;6456;42.680;23.260;2023-01-31T04:09:44;94260.03;;;1.25;91.10
12785;BME280;6456;42.680;23.260;2023-01-31T04:12:13;94338.69;;;1.64;91.89
12785;BME280;6456;42.680;23.260;2023-01-31T04:14:40;94360.91;;;1.59;92.81
12785;BME280;6456;42.680;23.260;2023-01-31T04:17:07;94325.28;;;1.37;93.41
12785;BME280;6456;42.680;23.260;2023-01-31T04:19:34;94355.25;;;1.47;94.04
12785;BME280;6456;42.680;23.260;2023-01-31T04:22:02;94352.03;;;1.45;94.95
12785;BME280;6456;42.680;23.260;2023-01-31T04:24:31;94310.88;;;1.18;95.32
12785;BME280;6456;42.680;23.260;2023-01-31T04:26:58;94339.25;;;1.27;95.61
12785;BME280;6456;42.680;23.260;2023-01-31T04:29:25;94358.19;;;1.20;96.11
12785;BME280;6456;42.680;23.260;2023-01-31T04:31:51;94320.28;;;0.87;96.77
12785;BME280;6456;42.680;23.260;2023-01-31T04:34:18;94374.22;;;1.23;97.09
12785;BME280;6456;42.680;23.260;2023-01-31T04:36:45;94359.16;;;1.19;97.75
12785;BME280;6456;42.680;23.260;2023-01-31T04:39:12;94337.94;;;0.99;97.98
12785;BME280;6456;42.680;23.260;2023-01-31T04:41:41;94382.00;;;1.32;98.43
12785;BME280;6456;42.680;23.260;2023-01-31T04:44:08;94378.44;;;1.33;98.46
12785;BME280;6456;42.680;23.260;2023-01-31T04:46:36;94308.47;;;0.84;99.00
12785;BME280;6456;42.680;23.260;2023-01-31T04:49:03;94322.38;;;0.91;99.25
12785;BME280;6456;42.680;23.260;2023-01-31T04:51:30;94350.25;;;1.21;99.18
12785;BME280;6456;42.680;23.260;2023-01-31T04:53:57;94377.31;;;1.35;98.94
12785;BME280;6456;42.680;23.260;2023-01-31T04:56:24;94360.94;;;1.26;99.12
12785;BME280;6456;42.680;23.260;2023-01-31T04:58:53;94279.00;;;0.77;98.55
12785;BME280;6456;42.680;23.260;2023-01-31T05:01:20;94316.88;;;0.94;98.74
12785;BME280;6456;42.680;23.260;2023-01-31T05:03:47;94275.44;;;0.78;98.38
12785;BME280;6456;42.680;23.260;2023-01-31T05:06:13;94374.84;;;1.34;98.35
12785;BME280;6456;42.680;23.260;2023-01-31T05:08:40;94367.59;;;1.37;99.01
12785;BME280;6456;42.680;23.260;2023-01-31T05:11:07;94367.72;;;1.36;99.26
12785;BME280;6456;42.680;23.260;2023-01-31T05:13:35;94346.53;;;1.24;99.33
12785;BME280;6456;42.680;23.260;2023-01-31T05:16:05;94362.06;;;1.32;99.01
12785;BME280;6456;42.680;23.260;2023-01-31T05:18:33;94371.31;;;1.35;99.41
12785;BME280;6456;42.680;23.260;2023-01-31T05:21:01;94319.16;;;0.89;99.44
12785;BME280;6456;42.680;23.260;2023-01-31T05:23:28;94391.72;;;1.38;98.86
12785;BME280;6456;42.680;23.260;2023-01-31T05:25:56;94379.06;;;1.26;98.65
12785;BME280;6456;42.680;23.260;2023-01-31T05:28:23;94382.00;;;1.40;98.52
12785;BME280;6456;42.680;23.260;2023-01-31T05:30:51;94382.63;;;1.42;98.08
12785;BME280;6456;42.680;23.260;2023-01-31T05:33:19;94385.56;;;1.47;97.79
12785;BME280;6456;42.680;23.260;2023-01-31T05:35:46;94394.13;;;1.39;98.08
12785;BME280;6456;42.680;23.260;2023-01-31T05:38:13;94394.63;;;1.43;98.23
12785;BME280;6456;42.680;23.260;2023-01-31T05:40:40;94392.84;;;1.43;98.00
12785;BME280;6456;42.680;23.260;2023-01-31T05:43:07;94314.63;;;0.99;98.10
12785;BME280;6456;42.680;23.260;2023-01-31T05:45:33;94380.84;;;1.34;97.86
12785;BME280;6456;42.680;23.260;2023-01-31T05:48:01;94389.78;;;1.40;97.95
12785;BME280;6456;42.680;23.260;2023-01-31T05:50:29;94404.34;;;1.49;98.02
12785;BME280;6456;42.680;23.260;2023-01-31T05:52:59;94402.88;;;1.46;98.25
12785;BME280;6456;42.680;23.260;2023-01-31T05:55:28;94379.91;;;1.35;98.08
12785;BME280;6456;42.680;23.260;2023-01-31T05:57:55;94395.09;;;1.46;98.23
12785;BME280;6456;42.680;23.260;2023-01-31T06:00:22;94390.25;;;1.43;98.83
12785;BME280;6456;42.680;23.260;2023-01-31T06:02:49;94413.09;;;1.64;98.34
12785;BME280;6456;42.680;23.260;2023-01-31T06:05:16;94391.06;;;1.60;97.93
12785;BME280;6456;42.680;23.260;2023-01-31T06:07:44;94402.72;;;1.72;98.06
12785;BME280;6456;42.680;23.260;2023-01-31T06:10:11;94396.72;;;1.71;98.25
12785;BME280;6456;42.680;23.260;2023-01-31T06:12:39;94378.72;;;1.62;97.77
12785;BME280;6456;42.680;23.260;2023-01-31T06:15:07;94407.53;;;1.83;97.70
12785;BME280;6456;42.680;23.260;2023-01-31T06:17:34;94404.00;;;1.84;98.06
12785;BME280;6456;42.680;23.260;2023-01-31T06:20:01;94425.69;;;1.83;98.56
12785;BME280;6456;42.680;23.260;2023-01-31T06:22:28;94398.81;;;1.84;99.17
12785;BME280;6456;42.680;23.260;2023-01-31T06:24:56;94385.50;;;1.79;99.38
12785;BME280;6456;42.680;23.260;2023-01-31T06:27:23;94412.72;;;1.83;99.06
12785;BME280;6456;42.680;23.260;2023-01-31T06:29:50;94407.22;;;1.86;98.58
12785;BME280;6456;42.680;23.260;2023-01-31T06:32:17;94414.34;;;1.92;98.66
12785;BME280;6456;42.680;23.260;2023-01-31T06:34:44;94421.31;;;1.91;98.52
12785;BME280;6456;42.680;23.260;2023-01-31T06:37:10;94369.63;;;1.66;98.01
12785;BME280;6456;42.680;23.260;2023-01-31T06:39:37;94398.47;;;1.87;98.29
12785;BME280;6456;42.680;23.260;2023-01-31T06:42:06;94356.34;;;1.61;98.55
12785;BME280;6456;42.680;23.260;2023-01-31T06:44:32;94410.13;;;1.91;98.67
12785;BME280;6456;42.680;23.260;2023-01-31T06:47:00;94418.22;;;1.88;99.08
12785;BME280;6456;42.680;23.260;2023-01-31T06:49:27;94416.97;;;1.76;99.24
12785;BME280;6456;42.680;23.260;2023-01-31T06:51:54;94433.47;;;1.91;98.88
12785;BME280;6456;42.680;23.260;2023-01-31T06:54:20;94413.22;;;1.94;98.74
12785;BME280;6456;42.680;23.260;2023-01-31T06:56:47;94404.94;;;1.91;98.17
12785;BME280;6456;42.680;23.260;2023-01-31T06:59:16;94420.19;;;1.94;97.71
12785;BME280;6456;42.680;23.260;2023-01-31T07:01:42;94414.00;;;2.03;97.38
12785;BME280;6456;42.680;23.260;2023-01-31T07:04:12;94406.41;;;1.93;97.31
12785;BME280;6456;42.680;23.260;2023-01-31T07:06:38;94412.84;;;2.06;96.59
12785;BME280;6456;42.680;23.260;2023-01-31T07:09:05;94420.50;;;2.07;96.68
12785;BME280;6456;42.680;23.260;2023-01-31T07:11:32;94424.38;;;2.03;96.74
12785;BME280;6456;42.680;23.260;2023-01-31T07:13:59;94418.41;;;2.03;96.42
12785;BME280;6456;42.680;23.260;2023-01-31T07:16:27;94430.50;;;2.26;95.91
12785;BME280;6456;42.680;23.260;2023-01-31T07:18:55;94415.56;;;2.28;95.77
12785;BME280;6456;42.680;23.260;2023-01-31T07:21:22;94432.25;;;2.34;96.04
12785;BME280;6456;42.680;23.260;2023-01-31T07:23:50;94440.22;;;2.32;96.69
12785;BME280;6456;42.680;23.260;2023-01-31T07:26:17;94369.63;;;1.82;97.35
12785;BME280;6456;42.680;23.260;2023-01-31T07:28:44;94438.91;;;2.28;97.87
12785;BME280;6456;42.680;23.260;2023-01-31T07:31:12;94426.59;;;2.30;98.26
12785;BME280;6456;42.680;23.260;2023-01-31T07:33:41;94425.63;;;2.23;97.70
12785;BME280;6456;42.680;23.260;2023-01-31T07:36:11;94435.97;;;2.39;97.34
12785;BME280;6456;42.680;23.260;2023-01-31T07:38:38;94447.31;;;2.46;97.07
12785;BME280;6456;42.680;23.260;2023-01-31T07:41:08;94439.84;;;2.43;97.56
12785;BME280;6456;42.680;23.260;2023-01-31T07:43:36;94447.28;;;2.54;97.66
12785;BME280;6456;42.680;23.260;2023-01-31T07:46:05;94465.78;;;2.51;97.23
12785;BME280;6456;42.680;23.260;2023-01-31T07:48:33;94410.88;;;2.24;97.55
12785;BME280;6456;42.680;23.260;2023-01-31T07:51:01;94431.72;;;2.46;97.19
12785;BME280;6456;42.680;23.260;2023-01-31T07:53:30;94430.78;;;2.39;97.24
12785;BME280;6456;42.680;23.260;2023-01-31T07:56:04;94457.28;;;2.66;97.89
12785;BME280;6456;42.680;23.260;2023-01-31T07:58:35;94442.06;;;2.63;97.74
12785;BME280;6456;42.680;23.260;2023-01-31T08:01:02;94450.63;;;2.71;97.92
12785;BME280;6456;42.680;23.260;2023-01-31T08:03:46;94452.06;;;2.74;97.33
12785;BME280;6456;42.680;23.260;2023-01-31T08:06:15;94467.00;;;2.80;97.27
12785;BME280;6456;42.680;23.260;2023-01-31T08:08:43;94439.97;;;2.89;97.31
12785;BME280;6456;42.680;23.260;2023-01-31T08:11:10;94436.06;;;2.93;96.22
12785;BME280;6456;42.680;23.260;2023-01-31T08:13:37;94452.56;;;3.08;96.16
12785;BME280;6456;42.680;23.260;2023-01-31T08:16:06;94443.91;;;3.15;94.67
12785;BME280;6456;42.680;23.260;2023-01-31T08:18:34;94452.50;;;3.16;93.68
12785;BME280;6456;42.680;23.260;2023-01-31T08:21:00;94451.19;;;3.20;93.60
12785;BME280;6456;42.680;23.260;2023-01-31T08:23:29;94456.66;;;3.33;93.09
12785;BME280;6456;42.680;23.260;2023-01-31T08:26:00;94453.97;;;3.41;93.15
12785;BME280;6456;42.680;23.260;2023-01-31T08:28:27;94456.81;;;3.54;92.63
12785;BME280;6456;42.680;23.260;2023-01-31T08:30:54;94453.25;;;3.55;91.70
12785;BME280;6456;42.680;23.260;2023-01-31T08:33:21;94439.50;;;3.61;91.92
12785;BME280;6456;42.680;23.260;2023-01-31T08:35:48;94436.91;;;3.61;91.57
12785;BME280;6456;42.680;23.260;2023-01-31T08:38:15;94423.22;;;3.45;91.14
12785;BME280;6456;42.680;23.260;2023-01-31T08:40:44;94450.84;;;3.68;91.10
12785;BME280;6456;42.680;23.260;2023-01-31T08:43:10;94454.84;;;3.56;91.57
12785;BME280;6456;42.680;23.260;2023-01-31T08:45:37;94426.47;;;3.24;92.31
12785;BME280;6456;42.680;23.260;2023-01-31T08:48:04;94436.41;;;3.43;93.63
12785;BME280;6456;42.680;23.260;2023-01-31T08:50:32;94434.06;;;3.48;93.44
12785;BME280;6456;42.680;23.260;2023-01-31T08:53:00;94433.88;;;3.58;92.91
12785;BME280;6456;42.680;23.260;2023-01-31T08:55:29;94439.50;;;3.61;92.65
12785;BME280;6456;42.680;23.260;2023-01-31T08:57:58;94418.22;;;3.43;92.28
12785;BME280;6456;42.680;23.260;2023-01-31T09:00:27;94399.72;;;3.38;90.67
12785;BME280;6456;42.680;23.260;2023-01-31T09:02:54;94427.13;;;3.63;90.65
12785;BME280;6456;42.680;23.260;2023-01-31T09:05:22;94453.22;;;3.78;89.72
12785;BME280;6456;42.680;23.260;2023-01-31T09:07:49;94427.41;;;3.68;89.80
12785;BME280;6456;42.680;23.260;2023-01-31T09:10:16;94437.44;;;3.79;89.93
12785;BME280;6456;42.680;23.260;2023-01-31T09:12:43;94459.63;;;3.90;89.27
12785;BME280;6456;42.680;23.260;2023-01-31T09:15:13;94424.47;;;3.71;88.30
12785;BME280;6456;42.680;23.260;2023-01-31T09:17:40;94442.97;;;3.76;88.75
12785;BME280;6456;42.680;23.260;2023-01-31T09:20:09;94435.00;;;3.78;87.74
12785;BME280;6456;42.680;23.260;2023-01-31T09:22:36;94449.09;;;3.83;87.99
12785;BME280;6456;42.680;23.260;2023-01-31T09:25:03;94447.19;;;4.00;87.80
12785;BME280;6456;42.680;23.260;2023-01-31T09:27:30;94439.09;;;4.10;87.61
12785;BME280;6456;42.680;23.260;2023-01-31T09:29:57;94446.94;;;4.24;87.07
12785;BME280;6456;42.680;23.260;2023-01-31T09:32:26;94427.81;;;4.32;87.02
12785;BME280;6456;42.680;23.260;2023-01-31T09:34:54;94453.16;;;4.38;86.06
12785;BME280;6456;42.680;23.260;2023-01-31T09:37:21;94428.63;;;4.18;85.67
12785;BME280;6456;42.680;23.260;2023-01-31T09:39:48;94438.97;;;4.26;86.45
12785;BME280;6456;42.680;23.260;2023-01-31T09:42:18;94416.03;;;4.07;87.17
12785;BME280;6456;42.680;23.260;2023-01-31T09:44:56;94419.44;;;4.07;88.14
12785;BME280;6456;42.680;23.260;2023-01-31T09:47:27;94416.75;;;4.15;88.52
12785;BME280;6456;42.680;23.260;2023-01-31T09:49:58;94417.84;;;4.21;87.44
12785;BME280;6456;42.680;23.260;2023-01-31T09:52:26;94392.50;;;4.00;87.23
12785;BME280;6456;42.680;23.260;2023-01-31T09:54:55;94384.56;;;3.94;88.33
12785;BME280;6456;42.680;23.260;2023-01-31T09:57:33;94412.09;;;4.11;88.26
12785;BME280;6456;42.680;23.260;2023-01-31T10:00:11;94406.00;;;4.18;87.04
12785;BME280;6456;42.680;23.260;2023-01-31T10:03:02;94431.94;;;4.26;86.95
12785;BME280;6456;42.680;23.260;2023-01-31T10:05:36;94423.34;;;4.26;85.99
12785;BME280;6456;42.680;23.260;2023-01-31T10:08:12;94415.25;;;4.21;86.95
12785;BME280;6456;42.680;23.260;2023-01-31T10:10:45;94391.78;;;4.06;87.73
12785;BME280;6456;42.680;23.260;2023-01-31T10:13:17;94391.00;;;4.06;87.09
12785;BME280;6456;42.680;23.260;2023-01-31T10:15:50;94392.25;;;4.10;86.71
12785;BME280;6456;42.680;23.260;2023-01-31T10:18:24;94354.00;;;3.96;87.00
12785;BME280;6456;42.680;23.260;2023-01-31T10:20:55;94377.97;;;4.06;86.22
12785;BME280;6456;42.680;23.260;2023-01-31T10:23:27;94363.13;;;3.92;83.79
12785;BME280;6456;42.680;23.260;2023-01-31T10:25:59;94361.25;;;4.00;85.17
12785;BME280;6456;42.680;23.260;2023-01-31T10:28:31;94346.88;;;4.04;85.56
12785;BME280;6456;42.680;23.260;2023-01-31T10:31:04;94381.81;;;4.24;85.14
12785;BME280;6456;42.680;23.260;2023-01-31T10:33:40;94381.38;;;4.35;84.43
12785;BME280;6456;42.680;23.260;2023-01-31T10:36:14;94382.38;;;4.34;86.61
12785;BME280;6456;42.680;23.260;2023-01-31T10:38:53;94370.41;;;4.40;86.24
12785;BME280;6456;42.680;23.260;2023-01-31T10:41:30;94370.78;;;4.37;87.13
12785;BME280;6456;42.680;23.260;2023-01-31T10:44:04;94363.31;;;4.34;84.23
12785;BME280;6456;42.680;23.260;2023-01-31T10:46:32;94330.28;;;4.05;85.24
12785;BME280;6456;42.680;23.260;2023-01-31T10:49:02;94376.59;;;4.39;86.70
12785;BME280;6456;42.680;23.260;2023-01-31T10:51:40;94373.47;;;4.29;84.83
12785;BME280;6456;42.680;23.260;2023-01-31T10:54:22;94378.69;;;4.14;86.23
12785;BME280;6456;42.680;23.260;2023-01-31T10:56:56;94364.41;;;4.25;86.53
12785;BME280;6456;42.680;23.260;2023-01-31T10:59:28;94395.47;;;4.41;85.75
12785;BME280;6456;42.680;23.260;2023-01-31T11:01:56;94363.94;;;4.21;86.22
12785;BME280;6456;42.680;23.260;2023-01-31T11:04:29;94377.41;;;4.39;85.27
12785;BME280;6456;42.680;23.260;2023-01-31T11:06:57;94389.28;;;4.42;86.46
12785;BME280;6456;42.680;23.260;2023-01-31T11:09:27;94386.75;;;4.34;86.76
12785;BME280;6456;42.680;23.260;2023-01-31T11:11:56;94399.63;;;4.35;86.84
12785;BME280;6456;42.680;23.260;2023-01-31T11:14:23;94387.31;;;4.29;86.92
12785;BME280;6456;42.680;23.260;2023-01-31T11:16:57;94384.00;;;4.21;88.41
12785;BME280;6456;42.680;23.260;2023-01-31T11:19:33;94392.50;;;4.15;89.66
12785;BME280;6456;42.680;23.260;2023-01-31T11:22:02;94372.50;;;4.15;90.40
12785;BME280;6456;42.680;23.260;2023-01-31T11:24:32;94373.13;;;4.17;89.63
12785;BME280;6456;42.680;23.260;2023-01-31T11:27:03;94385.16;;;4.18;89.92
12785;BME280;6456;42.680;23.260;2023-01-31T11:29:34;94392.50;;;4.15;90.56
12785;BME280;6456;42.680;23.260;2023-01-31T11:32:05;94407.16;;;4.16;90.84
12785;BME280;6456;42.680;23.260;2023-01-31T11:34:54;94396.28;;;3.98;91.19
12785;BME280;6456;42.680;23.260;2023-01-31T11:37:22;94409.06;;;3.84;91.97
12785;BME280;6456;42.680;23.260;2023-01-31T11:39:54;94394.41;;;3.69;94.07
12785;BME280;6456;42.680;23.260;2023-01-31T11:42:21;94384.44;;;3.58;94.19
12785;BME280;6456;42.680;23.260;2023-01-31T11:44:59;94400.22;;;3.56;95.00
12785;BME280;6456;42.680;23.260;2023-01-31T11:47:33;94346.47;;;3.26;95.87
12785;BME280;6456;42.680;23.260;2023-01-31T11:50:06;94397.66;;;3.48;95.57
12785;BME280;6456;42.680;23.260;2023-01-31T11:52:41;94379.59;;;3.32;96.32
12785;BME280;6456;42.680;23.260;2023-01-31T11:55:08;94401.03;;;3.34;96.16
12785;BME280;6456;42.680;23.260;2023-01-31T11:57:42;94394.22;;;3.33;96.88
12785;BME280;6456;42.680;23.260;2023-01-31T12:00:20;94375.78;;;3.20;96.65
12785;BME280;6456;42.680;23.260;2023-01-31T12:02:53;94399.78;;;3.30;97.25
12785;BME280;6456;42.680;23.260;2023-01-31T12:05:33;94376.47;;;3.14;97.81
12785;BME280;6456;42.680;23.260;2023-01-31T12:08:02;94385.50;;;3.26;98.19
12785;BME280;6456;42.680;23.260;2023-01-31T12:10:35;94390.06;;;3.24;99.41
12785;BME280;6456;42.680;23.260;2023-01-31T12:13:13;94354.72;;;3.15;97.90
12785;BME280;6456;42.680;23.260;2023-01-31T12:15:45;94371.03;;;3.01;96.64
12785;BME280;6456;42.680;23.260;2023-01-31T12:18:22;94368.69;;;3.14;96.55
12785;BME280;6456;42.680;23.260;2023-01-31T12:21:05;94381.63;;;3.22;97.12
12785;BME280;6456;42.680;23.260;2023-01-31T12:23:48;94384.22;;;3.22;95.64
12785;BME280;6456;42.680;23.260;2023-01-31T12:26:21;94371.28;;;3.14;95.86
12785;BME280;6456;42.680;23.260;2023-01-31T12:29:06;94353.66;;;3.01;96.63
12785;BME280;6456;42.680;23.260;2023-01-31T12:31:53;94385.09;;;3.14;95.98
12785;BME280;6456;42.680;23.260;2023-01-31T12:34:41;94329.53;;;2.93;96.71
12785;BME280;6456;42.680;23.260;2023-01-31T12:37:24;94382.19;;;3.32;95.65
12785;BME280;6456;42.680;23.260;2023-01-31T12:40:05;94339.13;;;3.15;94.18
12785;BME280;6456;42.680;23.260;2023-01-31T12:42:49;94379.34;;;3.42;93.97
12785;BME280;6456;42.680;23.260;2023-01-31T12:45:30;94374.41;;;3.32;92.27
12785;BME280;6456;42.680;23.260;2023-01-31T12:48:27;94385.31;;;3.50;91.50
12785;BME280;6456;42.680;23.260;2023-01-31T12:51:04;94377.56;;;3.42;91.76
12785;BME280;6456;42.680;23.260;2023-01-31T12:53:56;94376.31;;;3.38;93.22
12785;BME280;6456;42.680;23.260;2023-01-31T12:56:40;94390.22;;;3.45;93.38
12785;BME280;6456;42.680;23.260;2023-01-31T12:59:22;94379.22;;;3.43;93.70
12785;BME280;6456;42.680;23.260;2023-01-31T13:01:57;94389.34;;;3.53;93.90
12785;BME280;6456;42.680;23.260;2023-01-31T13:04:32;94389.47;;;3.59;92.23
12785;BME280;6456;42.680;23.260;2023-01-31T13:07:05;94392.16;;;3.66;92.36
12785;BME280;6456;42.680;23.260;2023-01-31T13:09:37;94375.69;;;3.51;91.12
12785;BME280;6456;42.680;23.260;2023-01-31T13:12:06;94399.69;;;3.61;90.84
12785;BME280;6456;42.680;23.260;2023-01-31T13:14:38;94376.84;;;3.48;91.12
12785;BME280;6456;42.680;23.260;2023-01-31T13:17:09;94365.53;;;3.41;91.99
12785;BME280;6456;42.680;23.260;2023-01-31T13:19:41;94393.03;;;3.58;91.70
12785;BME280;6456;42.680;23.260;2023-01-31T13:22:13;94370.75;;;3.41;92.43
12785;BME280;6456;42.680;23.260;2023-01-31T13:24:43;94383.00;;;3.55;91.31
12785;BME280;6456;42.680;23.260;2023-01-31T13:27:17;94396.97;;;3.54;91.87
12785;BME280;6456;42.680;23.260;2023-01-31T13:29:50;94389.59;;;3.43;93.07
12785;BME280;6456;42.680;23.260;2023-01-31T13:32:26;94406.75;;;3.52;92.44